sensor_id;sensor_type;location;lat;lon;timestamp;pressure;altitude;pressure_sealevel;temperature;humidity
18749;BME280;9503;53.560;10.246;2022-11-09T00:00:00;100005.66;;;14.87;78.48
18749;BME280;9503;53.560;10.246;2022-11-09T00:02:30;100005.09;;;15.04;78.15
18749;BME280;9503;53.560;10.246;2022-11-09T00:04:57;100000.91;;;15.10;77.71
18749;BME280;9503;53.560;10.246;2022-11-09T00:07:25;100003.44;;;15.06;77.65
18749;BME280;9503;53.560;10.246;2022-11-09T00:09:51;99996.50;;;15.05;78.35
18749;BME280;9503;53.560;10.246;2022-11-09T00:12:18;100000.91;;;15.10;77.83
18749;BME280;9503;53.560;10.246;2022-11-09T00:14:44;100001.66;;;15.05;77.98
18749;BME280;9503;53.560;10.246;2022-11-09T00:17:11;99995.59;;;15.01;78.52
18749;BME280;9503;53.560;10.246;2022-11-09T00:19:37;100001.00;;;15.15;77.71
18749;BME280;9503;53.560;10.246;2022-11-09T00:22:04;100004.91;;;14.93;78.72
18749;BME280;9503;53.560;10.246;2022-11-09T00:24:32;100000.84;;;15.06;78.59
18749;BME280;9503;53.560;10.246;2022-11-09T00:26:59;99992.19;;;15.04;78.92
18749;BME280;9503;53.560;10.246;2022-11-09T00:29:27;99996.63;;;15.11;78.20
18749;BME280;9503;53.560;10.246;2022-11-09T00:31:53;99996.69;;;15.14;77.91
18749;BME280;9503;53.560;10.246;2022-11-09T00:34:20;99993.91;;;15.05;78.23
18749;BME280;9503;53.560;10.246;2022-11-09T00:36:47;99980.88;;;14.97;79.19
18749;BME280;9503;53.560;10.246;2022-11-09T00:39:13;99980.13;;;15.03;78.72
18749;BME280;9503;53.560;10.246;2022-11-09T00:41:41;99980.09;;;15.01;78.99
18749;BME280;9503;53.560;10.246;2022-11-09T00:44:08;99975.91;;;15.08;78.70
18749;BME280;9503;53.560;10.246;2022-11-09T00:46:35;99975.84;;;15.05;79.13
18749;BME280;9503;53.560;10.246;2022-11-09T00:49:01;99970.38;;;14.88;79.66
18749;BME280;9503;53.560;10.246;2022-11-09T00:51:28;99978.94;;;14.84;79.79
18749;BME280;9503;53.560;10.246;2022-11-09T00:53:55;99972.00;;;14.83;79.91
18749;BME280;9503;53.560;10.246;2022-11-09T00:56:23;99975.25;;;14.73;80.27
18749;BME280;9503;53.560;10.246;2022-11-09T00:58:53;99975.53;;;14.86;80.03
18749;BME280;9503;53.560;10.246;2022-11-09T01:01:20;99970.34;;;14.85;80.09
18749;BME280;9503;53.560;10.246;2022-11-09T01:03:47;99967.72;;;14.83;79.68
18749;BME280;9503;53.560;10.246;2022-11-09T01:06:15;99971.22;;;14.87;79.47
18749;BME280;9503;53.560;10.246;2022-11-09T01:08:42;99975.38;;;14.79;80.33
18749;BME280;9503;53.560;10.246;2022-11-09T01:11:09;99972.97;;;14.88;80.02
18749;BME280;9503;53.560;10.246;2022-11-09T01:13:37;99979.75;;;14.83;79.54
18749;BME280;9503;53.560;10.246;2022-11-09T01:16:07;99984.00;;;14.79;79.83
18749;BME280;9503;53.560;10.246;2022-11-09T01:18:34;99974.50;;;14.77;80.11
18749;BME280;9503;53.560;10.246;2022-11-09T01:21:02;99966.59;;;14.69;80.70
18749;BME280;9503;53.560;10.246;2022-11-09T01:23:29;99974.34;;;14.69;80.51
18749;BME280;9503;53.560;10.246;2022-11-09T01:25:56;99970.88;;;14.69;80.70
18749;BME280;9503;53.560;10.246;2022-11-09T01:28:23;99968.38;;;14.73;80.94
18749;BME280;9503;53.560;10.246;2022-11-09T01:30:50;99965.88;;;14.76;80.71
18749;BME280;9503;53.560;10.246;2022-11-09T01:33:18;99961.47;;;14.71;80.90
18749;BME280;9503;53.560;10.246;2022-11-09T01:35:44;99960.53;;;14.67;80.51
18749;BME280;9503;53.560;10.246;2022-11-09T01:38:11;99961.47;;;14.71;80.56
18749;BME280;9503;53.560;10.246;2022-11-09T01:40:39;99961.44;;;14.69;80.59
18749;BME280;9503;53.560;10.246;2022-11-09T01:43:08;99945.88;;;14.64;81.12
18749;BME280;9503;53.560;10.246;2022-11-09T01:45:40;99939.56;;;14.49;81.33
18749;BME280;9503;53.560;10.246;2022-11-09T01:48:11;99953.53;;;14.61;80.97
18749;BME280;9503;53.560;10.246;2022-11-09T01:50:42;99950.88;;;14.57;81.69
18749;BME280;9503;53.560;10.246;2022-11-09T01:53:13;99954.03;;;14.45;81.81
18749;BME280;9503;53.560;10.246;2022-11-09T01:55:43;99949.84;;;14.47;82.24
18749;BME280;9503;53.560;10.246;2022-11-09T01:58:13;99953.06;;;14.38;82.81
18749;BME280;9503;53.560;10.246;2022-11-09T02:00:43;99955.09;;;14.53;81.84
18749;BME280;9503;53.560;10.246;2022-11-09T02:03:14;99938.72;;;14.50;81.72
18749;BME280;9503;53.560;10.246;2022-11-09T02:05:45;99940.34;;;14.46;82.33
18749;BME280;9503;53.560;10.246;2022-11-09T02:08:14;99940.88;;;14.31;83.15
18749;BME280;9503;53.560;10.246;2022-11-09T02:10:45;99940.94;;;14.34;82.71
18749;BME280;9503;53.560;10.246;2022-11-09T02:13:17;99941.69;;;14.29;83.17
18749;BME280;9503;53.560;10.246;2022-11-09T02:15:44;99937.91;;;14.54;82.36
18749;BME280;9503;53.560;10.246;2022-11-09T02:18:11;99937.13;;;14.56;82.34
18749;BME280;9503;53.560;10.246;2022-11-09T02:20:46;99944.84;;;14.56;82.34
18749;BME280;9503;53.560;10.246;2022-11-09T02:23:14;99936.38;;;14.62;81.91
18749;BME280;9503;53.560;10.246;2022-11-09T02:25:44;99938.28;;;14.74;81.48
18749;BME280;9503;53.560;10.246;2022-11-09T02:28:13;99931.50;;;14.79;81.13
18749;BME280;9503;53.560;10.246;2022-11-09T02:30:41;99926.28;;;14.76;81.46
18749;BME280;9503;53.560;10.246;2022-11-09T02:33:08;99932.53;;;14.87;81.27
18749;BME280;9503;53.560;10.246;2022-11-09T02:35:34;99925.59;;;14.84;81.01
18749;BME280;9503;53.560;10.246;2022-11-09T02:38:02;99929.44;;;15.06;80.89
18749;BME280;9503;53.560;10.246;2022-11-09T02:40:32;99929.38;;;15.05;80.44
18749;BME280;9503;53.560;10.246;2022-11-09T02:43:02;99933.75;;;15.07;80.41
18749;BME280;9503;53.560;10.246;2022-11-09T02:45:30;99938.03;;;15.07;80.17
18749;BME280;9503;53.560;10.246;2022-11-09T02:47:56;99933.84;;;15.13;80.36
18749;BME280;9503;53.560;10.246;2022-11-09T02:50:23;99931.41;;;15.21;79.80
18749;BME280;9503;53.560;10.246;2022-11-09T02:52:49;99935.72;;;15.22;79.66
18749;BME280;9503;53.560;10.246;2022-11-09T02:55:17;99937.44;;;15.23;80.06
18749;BME280;9503;53.560;10.246;2022-11-09T02:57:44;99936.56;;;15.21;79.64
18749;BME280;9503;53.560;10.246;2022-11-09T03:00:11;99938.34;;;15.25;79.64
18749;BME280;9503;53.560;10.246;2022-11-09T03:02:38;99945.78;;;15.07;80.49
18749;BME280;9503;53.560;10.246;2022-11-09T03:05:06;99944.81;;;15.02;80.93
18749;BME280;9503;53.560;10.246;2022-11-09T03:07:32;99944.91;;;15.06;80.58
18749;BME280;9503;53.560;10.246;2022-11-09T03:09:59;99937.31;;;15.15;80.18
18749;BME280;9503;53.560;10.246;2022-11-09T03:12:27;99936.44;;;15.15;80.31
18749;BME280;9503;53.560;10.246;2022-11-09T03:14:57;99936.38;;;15.12;79.86
18749;BME280;9503;53.560;10.246;2022-11-09T03:17:24;99940.88;;;15.22;79.88
18749;BME280;9503;53.560;10.246;2022-11-09T03:19:51;99943.94;;;15.00;80.85
18749;BME280;9503;53.560;10.246;2022-11-09T03:22:18;99940.56;;;15.04;80.82
18749;BME280;9503;53.560;10.246;2022-11-09T03:24:45;99942.13;;;14.96;80.99
18749;BME280;9503;53.560;10.246;2022-11-09T03:27:12;99950.09;;;15.06;80.37
18749;BME280;9503;53.560;10.246;2022-11-09T03:29:40;99934.53;;;15.05;80.63
18749;BME280;9503;53.560;10.246;2022-11-09T03:32:07;99944.88;;;15.05;80.96
18749;BME280;9503;53.560;10.246;2022-11-09T03:34:33;99938.72;;;14.98;80.61
18749;BME280;9503;53.560;10.246;2022-11-09T03:37:00;99943.09;;;15.01;80.90
18749;BME280;9503;53.560;10.246;2022-11-09T03:39:26;99950.00;;;15.03;80.98
18749;BME280;9503;53.560;10.246;2022-11-09T03:41:53;99950.72;;;14.95;81.37
18749;BME280;9503;53.560;10.246;2022-11-09T03:44:19;99943.72;;;14.89;81.50
18749;BME280;9503;53.560;10.246;2022-11-09T03:46:47;99949.75;;;14.89;81.95
18749;BME280;9503;53.560;10.246;2022-11-09T03:49:14;99938.72;;;14.98;81.71
18749;BME280;9503;53.560;10.246;2022-11-09T03:51:40;99948.91;;;14.90;81.58
18749;BME280;9503;53.560;10.246;2022-11-09T03:54:07;99936.97;;;14.96;81.19
18749;BME280;9503;53.560;10.246;2022-11-09T03:56:34;99936.22;;;15.03;81.41
18749;BME280;9503;53.560;10.246;2022-11-09T03:59:00;99927.59;;;15.01;81.71
18749;BME280;9503;53.560;10.246;2022-11-09T04:01:27;99931.03;;;15.00;81.98
18749;BME280;9503;53.560;10.246;2022-11-09T04:03:55;99936.94;;;14.94;82.03
18749;BME280;9503;53.560;10.246;2022-11-09T04:06:21;99931.75;;;14.92;81.64
18749;BME280;9503;53.560;10.246;2022-11-09T04:08:48;99939.53;;;14.94;81.98
18749;BME280;9503;53.560;10.246;2022-11-09T04:11:14;99943.94;;;15.00;82.16
18749;BME280;9503;53.560;10.246;2022-11-09T04:13:41;99933.56;;;14.98;82.01
18749;BME280;9503;53.560;10.246;2022-11-09T04:16:07;99939.75;;;15.06;81.67
18749;BME280;9503;53.560;10.246;2022-11-09T04:18:34;99936.09;;;14.95;82.28
18749;BME280;9503;53.560;10.246;2022-11-09T04:21:02;99938.81;;;15.03;82.05
18749;BME280;9503;53.560;10.246;2022-11-09T04:23:29;99930.97;;;14.97;82.42
18749;BME280;9503;53.560;10.246;2022-11-09T04:25:57;99934.38;;;14.96;81.88
18749;BME280;9503;53.560;10.246;2022-11-09T04:28:24;99932.63;;;14.91;82.34
18749;BME280;9503;53.560;10.246;2022-11-09T04:30:53;99931.81;;;14.96;82.53
18749;BME280;9503;53.560;10.246;2022-11-09T04:33:20;99935.31;;;14.99;82.81
18749;BME280;9503;53.560;10.246;2022-11-09T04:35:46;99938.03;;;15.07;82.37
18749;BME280;9503;53.560;10.246;2022-11-09T04:38:14;99934.59;;;15.06;81.83
18749;BME280;9503;53.560;10.246;2022-11-09T04:40:41;99934.59;;;15.06;81.56
18749;BME280;9503;53.560;10.246;2022-11-09T04:43:12;99933.63;;;15.00;82.07
18749;BME280;9503;53.560;10.246;2022-11-09T04:45:40;99928.34;;;14.95;82.89
18749;BME280;9503;53.560;10.246;2022-11-09T04:48:08;99934.38;;;14.96;82.86
18749;BME280;9503;53.560;10.246;2022-11-09T04:50:35;99932.63;;;14.91;83.18
18749;BME280;9503;53.560;10.246;2022-11-09T04:53:06;99930.03;;;14.91;82.79
18749;BME280;9503;53.560;10.246;2022-11-09T04:55:34;99933.38;;;14.86;83.36
18749;BME280;9503;53.560;10.246;2022-11-09T04:58:01;99920.63;;;14.97;82.74
18749;BME280;9503;53.560;10.246;2022-11-09T05:00:28;99925.53;;;14.81;83.41
18749;BME280;9503;53.560;10.246;2022-11-09T05:02:58;99921.41;;;14.91;82.97
18749;BME280;9503;53.560;10.246;2022-11-09T05:05:25;99922.16;;;14.84;83.39
18749;BME280;9503;53.560;10.246;2022-11-09T05:07:51;99934.28;;;14.89;83.53
18749;BME280;9503;53.560;10.246;2022-11-09T05:10:18;99934.91;;;14.76;83.64
18749;BME280;9503;53.560;10.246;2022-11-09T05:12:46;99928.69;;;14.65;84.28
18749;BME280;9503;53.560;10.246;2022-11-09T05:15:13;99946.13;;;14.78;83.58
18749;BME280;9503;53.560;10.246;2022-11-09T05:17:39;99954.72;;;14.77;83.59
18749;BME280;9503;53.560;10.246;2022-11-09T05:20:07;99947.28;;;14.94;83.32
18749;BME280;9503;53.560;10.246;2022-11-09T05:22:38;99943.69;;;14.86;83.00
18749;BME280;9503;53.560;10.246;2022-11-09T05:25:22;99946.41;;;14.93;83.24
18749;BME280;9503;53.560;10.246;2022-11-09T05:27:50;99949.84;;;14.92;83.08
18749;BME280;9503;53.560;10.246;2022-11-09T05:30:17;99950.72;;;14.95;83.29
18749;BME280;9503;53.560;10.246;2022-11-09T05:32:44;99953.41;;;15.01;83.03
18749;BME280;9503;53.560;10.246;2022-11-09T05:35:11;99949.75;;;14.88;83.44
18749;BME280;9503;53.560;10.246;2022-11-09T05:37:37;99950.00;;;15.02;82.95
18749;BME280;9503;53.560;10.246;2022-11-09T05:40:05;99955.31;;;15.11;82.75
18749;BME280;9503;53.560;10.246;2022-11-09T05:42:33;99945.78;;;15.07;82.19
18749;BME280;9503;53.560;10.246;2022-11-09T05:45:01;99945.06;;;15.14;81.76
18749;BME280;9503;53.560;10.246;2022-11-09T05:47:27;99944.06;;;15.07;82.36
18749;BME280;9503;53.560;10.246;2022-11-09T05:49:54;99941.72;;;15.21;81.38
18749;BME280;9503;53.560;10.246;2022-11-09T05:52:20;99940.88;;;15.22;81.25
18749;BME280;9503;53.560;10.246;2022-11-09T05:54:47;99937.47;;;15.26;81.29
18749;BME280;9503;53.560;10.246;2022-11-09T05:57:13;99936.50;;;15.18;81.55
18749;BME280;9503;53.560;10.246;2022-11-09T05:59:40;99938.31;;;15.24;81.32
18749;BME280;9503;53.560;10.246;2022-11-09T06:02:08;99931.16;;;15.07;81.90
18749;BME280;9503;53.560;10.246;2022-11-09T06:04:34;99937.34;;;15.17;81.64
18749;BME280;9503;53.560;10.246;2022-11-09T06:07:01;99939.81;;;15.11;81.97
18749;BME280;9503;53.560;10.246;2022-11-09T06:09:27;99945.81;;;15.10;81.63
18749;BME280;9503;53.560;10.246;2022-11-09T06:11:54;99952.59;;;15.03;82.08
18749;BME280;9503;53.560;10.246;2022-11-09T06:14:20;99941.41;;;15.04;81.88
18749;BME280;9503;53.560;10.246;2022-11-09T06:16:47;99943.09;;;15.01;82.19
18749;BME280;9503;53.560;10.246;2022-11-09T06:19:15;99936.13;;;14.98;82.07
18749;BME280;9503;53.560;10.246;2022-11-09T06:21:41;99931.88;;;14.99;82.23
18749;BME280;9503;53.560;10.246;2022-11-09T06:24:08;99932.94;;;15.11;82.10
18749;BME280;9503;53.560;10.246;2022-11-09T06:26:35;99944.06;;;15.06;82.30
18749;BME280;9503;53.560;10.246;2022-11-09T06:29:02;99940.63;;;15.07;81.60
18749;BME280;9503;53.560;10.246;2022-11-09T06:31:28;99954.28;;;15.01;82.17
18749;BME280;9503;53.560;10.246;2022-11-09T06:33:55;99959.47;;;15.03;81.90
18749;BME280;9503;53.560;10.246;2022-11-09T06:36:23;99968.75;;;14.91;82.79
18749;BME280;9503;53.560;10.246;2022-11-09T06:38:50;99966.94;;;14.87;82.37
18749;BME280;9503;53.560;10.246;2022-11-09T06:41:17;99979.88;;;14.89;82.89
18749;BME280;9503;53.560;10.246;2022-11-09T06:43:44;99974.69;;;14.87;82.69
18749;BME280;9503;53.560;10.246;2022-11-09T06:46:11;99973.84;;;14.88;82.92
18749;BME280;9503;53.560;10.246;2022-11-09T06:48:39;99985.84;;;14.86;83.06
18749;BME280;9503;53.560;10.246;2022-11-09T06:51:06;99990.78;;;14.76;83.25
18749;BME280;9503;53.560;10.246;2022-11-09T06:53:33;99990.22;;;14.90;82.36
18749;BME280;9503;53.560;10.246;2022-11-09T06:56:03;99996.50;;;15.05;81.97
18749;BME280;9503;53.560;10.246;2022-11-09T06:58:30;99985.25;;;15.01;82.33
18749;BME280;9503;53.560;10.246;2022-11-09T07:00:57;99996.63;;;15.11;82.47
18749;BME280;9503;53.560;10.246;2022-11-09T07:03:24;100001.78;;;15.11;82.30
18749;BME280;9503;53.560;10.246;2022-11-09T07:05:51;100009.25;;;14.96;82.41
18749;BME280;9503;53.560;10.246;2022-11-09T07:08:18;100001.84;;;15.14;82.06
18749;BME280;9503;53.560;10.246;2022-11-09T07:10:46;100008.00;;;15.20;81.95
18749;BME280;9503;53.560;10.246;2022-11-09T07:13:13;100012.97;;;15.11;82.30
18749;BME280;9503;53.560;10.246;2022-11-09T07:15:39;100014.97;;;15.26;81.37
18749;BME280;9503;53.560;10.246;2022-11-09T07:18:08;100013.91;;;15.13;82.57
18749;BME280;9503;53.560;10.246;2022-11-09T07:20:36;100014.06;;;15.24;81.40
18749;BME280;9503;53.560;10.246;2022-11-09T07:23:03;100015.81;;;15.25;81.55
18749;BME280;9503;53.560;10.246;2022-11-09T07:25:29;100016.63;;;15.23;81.48
18749;BME280;9503;53.560;10.246;2022-11-09T07:28:02;100011.19;;;15.07;82.02
18749;BME280;9503;53.560;10.246;2022-11-09T07:30:29;100013.81;;;15.09;82.16
18749;BME280;9503;53.560;10.246;2022-11-09T07:32:56;100017.84;;;14.96;83.35
18749;BME280;9503;53.560;10.246;2022-11-09T07:35:24;100015.25;;;14.95;82.95
18749;BME280;9503;53.560;10.246;2022-11-09T07:37:50;100010.13;;;14.98;82.79
18749;BME280;9503;53.560;10.246;2022-11-09T07:40:17;100013.56;;;14.97;83.48
18749;BME280;9503;53.560;10.246;2022-11-09T07:42:44;100019.53;;;14.94;84.01
18749;BME280;9503;53.560;10.246;2022-11-09T07:45:12;100030.16;;;15.09;83.33
18749;BME280;9503;53.560;10.246;2022-11-09T07:47:38;100019.84;;;15.09;82.97
18749;BME280;9503;53.560;10.246;2022-11-09T07:50:05;100019.84;;;15.11;82.49
18749;BME280;9503;53.560;10.246;2022-11-09T07:52:32;100024.09;;;15.07;83.52
18749;BME280;9503;53.560;10.246;2022-11-09T07:54:58;100034.16;;;14.93;83.41
18749;BME280;9503;53.560;10.246;2022-11-09T07:57:25;100031.25;;;15.20;83.18
18749;BME280;9503;53.560;10.246;2022-11-09T07:59:51;100030.19;;;15.11;83.03
18749;BME280;9503;53.560;10.246;2022-11-09T08:02:19;100035.94;;;14.98;84.13
18749;BME280;9503;53.560;10.246;2022-11-09T08:04:46;100038.16;;;15.23;83.29
18749;BME280;9503;53.560;10.246;2022-11-09T08:07:12;100041.66;;;15.27;82.80
18749;BME280;9503;53.560;10.246;2022-11-09T08:09:39;100038.72;;;15.07;83.66
18749;BME280;9503;53.560;10.246;2022-11-09T08:12:05;100032.44;;;15.41;82.19
18749;BME280;9503;53.560;10.246;2022-11-09T08:14:32;100039.28;;;15.37;82.43
18749;BME280;9503;53.560;10.246;2022-11-09T08:16:58;100035.88;;;15.40;83.00
18749;BME280;9503;53.560;10.246;2022-11-09T08:19:26;100040.38;;;15.52;81.67
18749;BME280;9503;53.560;10.246;2022-11-09T08:21:53;100038.97;;;15.69;81.26
18749;BME280;9503;53.560;10.246;2022-11-09T08:24:21;100040.78;;;15.74;81.43
18749;BME280;9503;53.560;10.246;2022-11-09T08:26:47;100043.41;;;15.78;81.21
18749;BME280;9503;53.560;10.246;2022-11-09T08:29:14;100043.47;;;15.32;82.12
18749;BME280;9503;53.560;10.246;2022-11-09T08:31:41;100040.53;;;15.61;82.37
18749;BME280;9503;53.560;10.246;2022-11-09T08:34:09;100043.59;;;15.37;83.15
18749;BME280;9503;53.560;10.246;2022-11-09T08:36:37;100035.13;;;15.45;82.39
18749;BME280;9503;53.560;10.246;2022-11-09T08:39:04;100035.56;;;15.71;81.65
18749;BME280;9503;53.560;10.246;2022-11-09T08:41:30;100031.66;;;15.96;80.71
18749;BME280;9503;53.560;10.246;2022-11-09T08:43:58;100030.16;;;16.12;79.98
18749;BME280;9503;53.560;10.246;2022-11-09T08:46:24;100040.59;;;16.18;80.00
18749;BME280;9503;53.560;10.246;2022-11-09T08:48:51;100032.88;;;16.23;79.56
18749;BME280;9503;53.560;10.246;2022-11-09T08:51:17;100034.38;;;16.06;80.24
18749;BME280;9503;53.560;10.246;2022-11-09T08:53:45;100037.47;;;15.33;81.79
18749;BME280;9503;53.560;10.246;2022-11-09T08:56:12;100030.91;;;15.51;82.30
18749;BME280;9503;53.560;10.246;2022-11-09T08:58:43;100039.66;;;15.59;82.78
18749;BME280;9503;53.560;10.246;2022-11-09T09:01:10;100044.16;;;15.69;82.00
18749;BME280;9503;53.560;10.246;2022-11-09T09:03:40;100042.88;;;15.45;81.50
18749;BME280;9503;53.560;10.246;2022-11-09T09:06:07;100052.47;;;15.53;81.94
18749;BME280;9503;53.560;10.246;2022-11-09T09:08:34;100059.78;;;15.77;81.27
18749;BME280;9503;53.560;10.246;2022-11-09T09:11:02;100066.91;;;15.91;80.96
18749;BME280;9503;53.560;10.246;2022-11-09T09:13:29;100069.38;;;15.84;81.09
18749;BME280;9503;53.560;10.246;2022-11-09T09:15:56;100065.84;;;16.35;80.08
18749;BME280;9503;53.560;10.246;2022-11-09T09:18:22;100070.53;;;16.65;78.67
18749;BME280;9503;53.560;10.246;2022-11-09T09:20:49;100072.47;;;16.75;78.85
18749;BME280;9503;53.560;10.246;2022-11-09T09:23:16;100086.81;;;17.21;77.01
18749;BME280;9503;53.560;10.246;2022-11-09T09:25:42;100082.41;;;17.12;77.43
18749;BME280;9503;53.560;10.246;2022-11-09T09:28:10;100079.19;;;17.35;76.46
18749;BME280;9503;53.560;10.246;2022-11-09T09:30:37;100074.44;;;16.97;77.48
18749;BME280;9503;53.560;10.246;2022-11-09T09:33:03;100075.59;;;17.24;76.14
18749;BME280;9503;53.560;10.246;2022-11-09T09:35:30;100073.94;;;17.29;75.82
18749;BME280;9503;53.560;10.246;2022-11-09T09:37:56;100076.69;;;17.47;75.98
18749;BME280;9503;53.560;10.246;2022-11-09T09:40:25;100071.72;;;16.87;77.35
18749;BME280;9503;53.560;10.246;2022-11-09T09:42:55;100072.69;;;16.95;77.30
18749;BME280;9503;53.560;10.246;2022-11-09T09:45:27;100075.94;;;16.78;77.44
18749;BME280;9503;53.560;10.246;2022-11-09T09:47:58;100081.72;;;16.61;78.18
18749;BME280;9503;53.560;10.246;2022-11-09T09:50:29;100088.47;;;17.16;77.76
18749;BME280;9503;53.560;10.246;2022-11-09T09:53:00;100075.88;;;16.74;77.57
18749;BME280;9503;53.560;10.246;2022-11-09T09:55:33;100082.03;;;16.82;77.49
18749;BME280;9503;53.560;10.246;2022-11-09T09:58:06;100083.50;;;16.65;77.87
18749;BME280;9503;53.560;10.246;2022-11-09T10:00:38;100089.84;;;16.88;77.30
18749;BME280;9503;53.560;10.246;2022-11-09T10:03:14;100082.03;;;16.82;nan
18749;BME280;9503;53.560;10.246;2022-11-09T10:05:45;100099.34;;;16.89;75.74
18749;BME280;9503;53.560;10.246;2022-11-09T10:08:23;100089.63;;;16.70;76.93
18749;BME280;9503;53.560;10.246;2022-11-09T10:10:59;100088.91;;;16.81;76.37
18749;BME280;9503;53.560;10.246;2022-11-09T10:13:38;100090.31;;;16.59;76.54
18749;BME280;9503;53.560;10.246;2022-11-09T10:16:15;100085.50;;;16.84;76.05
18749;BME280;9503;53.560;10.246;2022-11-09T10:19:03;100081.38;;;17.01;75.13
18749;BME280;9503;53.560;10.246;2022-11-09T10:21:41;100084.19;;;17.20;74.80
18749;BME280;9503;53.560;10.246;2022-11-09T10:24:21;100093.38;;;16.93;75.83
18749;BME280;9503;53.560;10.246;2022-11-09T10:26:51;100085.94;;;17.21;75.20
18749;BME280;9503;53.560;10.246;2022-11-09T10:29:21;100088.53;;;17.22;75.21
18749;BME280;9503;53.560;10.246;2022-11-09T10:31:51;100088.28;;;16.99;75.75
18749;BME280;9503;53.560;10.246;2022-11-09T10:34:20;100076.59;;;17.35;74.64
18749;BME280;9503;53.560;10.246;2022-11-09T10:36:54;100080.94;;;17.40;74.60
18749;BME280;9503;53.560;10.246;2022-11-09T10:39:23;100085.88;;;17.16;74.21
18749;BME280;9503;53.560;10.246;2022-11-09T10:41:52;100080.31;;;17.63;73.36
18749;BME280;9503;53.560;10.246;2022-11-09T10:44:19;100077.03;;;17.78;72.84
18749;BME280;9503;53.560;10.246;2022-11-09T10:47:08;100064.59;;;17.48;73.34
18749;BME280;9503;53.560;10.246;2022-11-09T10:49:36;100069.63;;;17.31;73.80
18749;BME280;9503;53.560;10.246;2022-11-09T10:52:03;100073.16;;;17.40;74.23
18749;BME280;9503;53.560;10.246;2022-11-09T10:54:32;100069.53;;;17.22;73.00
18749;BME280;9503;53.560;10.246;2022-11-09T10:57:16;100065.94;;;17.10;73.23
18749;BME280;9503;53.560;10.246;2022-11-09T10:59:46;100070.69;;;17.51;72.84
18749;BME280;9503;53.560;10.246;2022-11-09T11:02:44;100069.28;;;17.00;72.88
18749;BME280;9503;53.560;10.246;2022-11-09T11:05:29;100073.34;;;17.57;72.78
18749;BME280;9503;53.560;10.246;2022-11-09T11:07:57;100079.91;;;18.17;71.77
18749;BME280;9503;53.560;10.246;2022-11-09T11:10:24;100067.38;;;17.66;72.46
18749;BME280;9503;53.560;10.246;2022-11-09T11:12:56;100069.38;;;17.99;71.75
18749;BME280;9503;53.560;10.246;2022-11-09T11:15:42;100069.03;;;17.58;71.00
18749;BME280;9503;53.560;10.246;2022-11-09T11:18:16;100063.78;;;17.52;70.48
18749;BME280;9503;53.560;10.246;2022-11-09T11:20:43;100074.13;;;17.50;70.21
18749;BME280;9503;53.560;10.246;2022-11-09T11:23:12;100067.97;;;17.37;69.45
18749;BME280;9503;53.560;10.246;2022-11-09T11:25:55;100065.22;;;17.24;70.57
18749;BME280;9503;53.560;10.246;2022-11-09T11:28:29;100071.56;;;17.52;69.70
18749;BME280;9503;53.560;10.246;2022-11-09T11:30:58;100066.38;;;17.52;69.60
18749;BME280;9503;53.560;10.246;2022-11-09T11:33:32;100075.94;;;17.57;69.50
18749;BME280;9503;53.560;10.246;2022-11-09T11:36:06;100071.41;;;17.36;70.19
18749;BME280;9503;53.560;10.246;2022-11-09T11:38:37;100072.28;;;17.40;70.50
18749;BME280;9503;53.560;10.246;2022-11-09T11:41:19;100059.31;;;17.38;69.11
18749;BME280;9503;53.560;10.246;2022-11-09T11:43:58;100074.94;;;17.42;68.72
18749;BME280;9503;53.560;10.246;2022-11-09T11:46:36;100084.84;;;17.00;69.19
18749;BME280;9503;53.560;10.246;2022-11-09T11:52:07;100082.06;;;17.67;67.94
18749;BME280;9503;53.560;10.246;2022-11-09T11:54:54;100083.78;;;17.63;68.43
18749;BME280;9503;53.560;10.246;2022-11-09T11:57:30;100079.03;;;17.20;68.94
18749;BME280;9503;53.560;10.246;2022-11-09T12:00:10;100084.31;;;17.30;68.80
18749;BME280;9503;53.560;10.246;2022-11-09T12:03:09;100095.03;;;17.65;67.99
18749;BME280;9503;53.560;10.246;2022-11-09T12:05:52;100083.44;;;17.30;69.10
18749;BME280;9503;53.560;10.246;2022-11-09T12:08:29;100082.84;;;17.58;68.35
18749;BME280;9503;53.560;10.246;2022-11-09T12:11:05;100080.06;;;17.37;68.48
18749;BME280;9503;53.560;10.246;2022-11-09T12:13:44;100081.31;;;17.77;67.76
18749;BME280;9503;53.560;10.246;2022-11-09T12:16:18;100080.09;;;17.42;68.43
18749;BME280;9503;53.560;10.246;2022-11-09T12:18:57;100079.41;;;17.61;67.88
18749;BME280;9503;53.560;10.246;2022-11-09T12:21:30;100070.31;;;17.15;68.58
18749;BME280;9503;53.560;10.246;2022-11-09T12:24:14;100069.03;;;17.59;67.80
18749;BME280;9503;53.560;10.246;2022-11-09T12:26:50;100080.19;;;17.51;67.72
18749;BME280;9503;53.560;10.246;2022-11-09T12:29:21;100077.31;;;17.23;68.36
18749;BME280;9503;53.560;10.246;2022-11-09T12:31:57;100075.06;;;17.55;67.72
18749;BME280;9503;53.560;10.246;2022-11-09T12:34:29;100074.28;;;17.65;67.03
18749;BME280;9503;53.560;10.246;2022-11-09T12:37:01;100063.72;;;17.47;67.93
18749;BME280;9503;53.560;10.246;2022-11-09T12:39:33;100077.97;;;17.89;66.93
18749;BME280;9503;53.560;10.246;2022-11-09T12:42:05;100077.19;;;18.02;66.92
18749;BME280;9503;53.560;10.246;2022-11-09T12:44:41;100075.16;;;17.66;67.52
18749;BME280;9503;53.560;10.246;2022-11-09T12:47:11;100070.97;;;17.79;67.41
18749;BME280;9503;53.560;10.246;2022-11-09T12:49:41;100078.41;;;17.47;68.18
18749;BME280;9503;53.560;10.246;2022-11-09T12:52:11;100075.78;;;17.42;69.05
18749;BME280;9503;53.560;10.246;2022-11-09T12:54:43;100071.47;;;17.41;69.20
18749;BME280;9503;53.560;10.246;2022-11-09T12:57:14;100068.91;;;17.44;68.71
18749;BME280;9503;53.560;10.246;2022-11-09T12:59:47;100074.94;;;17.46;68.87
18749;BME280;9503;53.560;10.246;2022-11-09T13:02:28;100083.72;;;17.62;68.50
18749;BME280;9503;53.560;10.246;2022-11-09T13:04:59;100069.44;;;18.04;67.41
18749;BME280;9503;53.560;10.246;2022-11-09T13:07:38;100080.75;;;18.15;67.39